Time;durP1;ratioP1;P1;durP2;ratioP2;P2;SDS_P1;SDS_P2;PMS_P1;PMS_P2;Temp;Humidity;BMP_temperature;BMP_pressure;BME280_temperature;BME280_humidity;BME280_pressure;Samples;Min_cycle;Max_cycle;Signal;HPM_P1;HPM_P2
2022/12/31 00:00:54;;;;;;;;;;;;;;;;;;1880968;28;7112;-62
2022/12/31 00:01:51;;;;;;;;;;;;;;;;;;1881610;28;8278;-63
2022/12/31 00:02:49;;;;;;;;;;;;;;;;;;1881738;28;7097;-63
2022/12/31 00:03:47;;;;;;;;;;;;;;;;;;1880027;28;8201;-63
2022/12/31 00:04:44;;;;;;;;;;;;;;;;;;1881246;28;8040;-63
2022/12/31 00:05:42;;;;;;;;;;;;;;;;;;1874519;28;8052;-63
2022/12/31 00:06:39;;;;;;;;;;;;;;;;;;1876333;28;7097;-64
2022/12/31 00:07:36;;;;;;;;;;;;;;;;;;1881241;28;7133;-62
2022/12/31 00:08:32;;;;;;;;;;;;;;;;;;1882044;28;7006;-63
2022/12/31 00:09:30;;;;;;;;;;;;;;;;;;1880473;28;7396;-62
2022/12/31 00:10:28;;;;;;;;;;;;;;;;;;1881778;28;7009;-62
2022/12/31 00:11:26;;;;;;;;;;;;;;;;;;1880978;28;7036;-64
2022/12/31 00:12:24;;;;;;;;;;;;;;;;;;1880651;28;7006;-63
2022/12/31 00:13:22;;;;;;;;;;;;;;;;;;1881096;28;7144;-64
2022/12/31 00:14:19;;;;;;;;;;;;;;;;;;1880189;28;7042;-63
2022/12/31 00:15:17;;;;;;;;;;;;;;;;;;1880639;28;7018;-64
2022/12/31 00:16:17;;;;;;;;;;;;;;;;;;1881555;28;7096;-64
2022/12/31 00:17:14;;;;;;;;;;;;;;;;;;1880919;28;7058;-63
2022/12/31 00:18:11;;;;;;;;;;;;;;;;;;1879643;28;7013;-62
2022/12/31 00:19:12;;;;;;;;;;;;;;;;;;1881634;28;7005;-62
2022/12/31 00:20:09;;;;;;;;;;;;;;;;;;1881742;28;7009;-62
2022/12/31 00:21:08;;;;;;;;;;;;;;;;;;1880942;28;8041;-62
2022/12/31 00:22:06;;;;;;;;;;;;;;;;;;1881037;28;7113;-63
2022/12/31 00:23:03;;;;;;;;;;;;;;;;;;1881246;28;7089;-63
2022/12/31 00:24:01;;;;;;;;;;;;;;;;;;1881213;28;7010;-62
2022/12/31 00:24:59;;;;;;;;;;;;;;;;;;1881453;28;7123;-62
2022/12/31 00:26:00;;;;;;;;;;;;;;;;;;1881506;28;7014;-63
2022/12/31 00:26:58;;;;;;;;;;;;;;;;;;1881089;28;7038;-63
2022/12/31 00:27:55;;;;;;;;;;;;;;;;;;1881678;28;7010;-63
2022/12/31 00:28:54;;;;;;;;;;;;;;;;;;1880871;28;7010;-61
2022/12/31 00:29:51;;;;;;;;;;;;;;;;;;1881552;28;7117;-63
2022/12/31 00:30:49;;;;;;;;;;;;;;;;;;1881670;28;7005;-63
2022/12/31 00:31:46;;;;;;;;;;;;;;;;;;1882042;28;7133;-63
2022/12/31 00:32:43;;;;;;;;;;;;;;;;;;1881657;28;7550;-62
2022/12/31 00:33:42;;;;;;;;;;;;;;;;;;1880595;28;7100;-63
2022/12/31 00:34:39;;;;;;;;;;;;;;;;;;1880785;28;8030;-62
2022/12/31 00:35:36;;;;;;;;;;;;;;;;;;1881929;28;7017;-63
2022/12/31 00:36:36;;;;;;;;;;;;;;;;;;1880953;28;7010;-62
2022/12/31 00:37:33;;;;;;;;;;;;;;;;;;1882485;28;7101;-62
2022/12/31 00:38:31;;;;;;;;;;;;;;;;;;1881398;28;7948;-61
2022/12/31 00:39:28;;;;;;;;;;;;;;;;;;1881820;28;7042;-61
2022/12/31 00:40:27;;;;;;;;;;;;;;;;;;1881428;28;7365;-62
2022/12/31 00:41:25;;;;;;;;;;;;;;;;;;1881511;28;7010;-64
2022/12/31 00:42:22;;;;;;;;;;;;;;;;;;1881829;28;7013;-64
2022/12/31 00:43:20;;;;;;;;;;;;;;;;;;1880843;28;8040;-63
2022/12/31 00:44:17;;;;;;;;;;;;;;;;;;1881081;28;7100;-63
2022/12/31 00:45:14;;;;;;;;;;;;;;;;;;1880913;28;7014;-63
2022/12/31 00:46:12;;;;;;;;;;;;;;;;;;1881922;28;7042;-63
2022/12/31 00:47:10;;;;;;;;;;;;;;;;;;1881644;28;7046;-62
2022/12/31 00:48:07;;;;;;;;;;;;;;;;;;1881879;28;7067;-62
2022/12/31 00:49:05;;;;;;;;;;;;;;;;;;1881661;28;7033;-63
2022/12/31 00:50:04;;;;;;;;;;;;;;;;;;1880988;28;7237;-63
2022/12/31 00:51:03;;;;;;;;;;;;;;;;;;1882047;28;9022;-64
2022/12/31 00:52:00;;;;;;;;;;;;;;;;;;1875855;28;7042;-63
2022/12/31 00:52:58;;;;;;;;;;;;;;;;;;1875872;28;7006;-64
2022/12/31 00:53:56;;;;;;;;;;;;;;;;;;1881351;28;7022;-62
2022/12/31 00:54:53;;;;;;;;;;;;;;;;;;1881150;28;7093;-62
2022/12/31 00:55:51;;;;;;;;;;;;;;;;;;1881582;28;7010;-63
2022/12/31 00:56:49;;;;;;;;;;;;;;;;;;1881077;28;7006;-64
2022/12/31 00:57:46;;;;;;;;;;;;;;;;;;1880620;28;7304;-61
2022/12/31 00:58:44;;;;;;;;;;;;;;;;;;1880819;28;7050;-63
2022/12/31 00:59:41;;;;;;;;;;;;;;;;;;1882380;28;7204;-61
2022/12/31 01:00:39;;;;;;;;;;;;;;;;;;1881861;28;7351;-64
2022/12/31 01:01:38;;;;;;;;;;;;;;;;;;1878233;28;7094;-63
2022/12/31 01:02:36;;;;;;;;;;;;;;;;;;1876848;28;7038;-62
2022/12/31 01:03:33;;;;;;;;;;;;;;;;;;1881711;28;8025;-64
2022/12/31 01:04:31;;;;;;;;;;;;;;;;;;1881759;28;7005;-64
2022/12/31 01:05:29;;;;;;;;;;;;;;;;;;1881588;28;7097;-64
2022/12/31 01:06:27;;;;;;;;;;;;;;;;;;1882403;28;7082;-62
2022/12/31 01:07:24;;;;;;;;;;;;;;;;;;1882437;28;7392;-62
2022/12/31 01:08:21;;;;;;;;;;;;;;;;;;1881949;28;7046;-62
2022/12/31 01:09:19;;;;;;;;;;;;;;;;;;1882019;28;7117;-63
2022/12/31 01:11:17;;;;;;;;;;;;;;;;;;1882503;28;7092;-64
2022/12/31 01:11:35;;;;;;;;;;;;;;;;;;1881719;28;7066;-63
2022/12/31 01:12:32;;;;;;;;;;;;;;;;;;1881877;28;7395;-62
2022/12/31 01:13:29;;;;;;;;;;;;;;;;;;1879723;28;7100;-63
2022/12/31 01:14:27;;;;;;;;;;;;;;;;;;1882812;28;7117;-62
2022/12/31 01:15:24;;;;;;;;;;;;;;;;;;1881426;28;7162;-63
2022/12/31 01:16:28;;;;;;;;;;;;;;;;;;1881494;28;7042;-64
2022/12/31 01:17:25;;;;;;;;;;;;;;;;;;1881790;28;7006;-63
2022/12/31 01:18:22;;;;;;;;;;;;;;;;;;1881712;28;7409;-62
2022/12/31 01:19:22;;;;;;;;;;;;;;;;;;1881778;28;7018;-61
2022/12/31 01:20:19;;;;;;;;;;;;;;;;;;1880977;28;7062;-62
2022/12/31 01:21:18;;;;;;;;;;;;;;;;;;1881597;28;9903;-63
2022/12/31 01:22:15;;;;;;;;;;;;;;;;;;1881942;28;7006;-64
2022/12/31 01:23:13;;;;;;;;;;;;;;;;;;1881520;28;8170;-62
2022/12/31 01:24:11;;;;;;;;;;;;;;;;;;1881963;28;7055;-62
2022/12/31 01:25:08;;;;;;;;;;;;;;;;;;1881536;28;8017;-62
2022/12/31 01:26:10;;;;;;;;;;;;;;;;;;1881343;28;7014;-64
2022/12/31 01:27:07;;;;;;;;;;;;;;;;;;1873435;28;7010;-64
2022/12/31 01:28:05;;;;;;;;;;;;;;;;;;1876738;28;7113;-62
2022/12/31 01:29:03;;;;;;;;;;;;;;;;;;1875535;28;7110;-64
2022/12/31 01:30:01;;;;;;;;;;;;;;;;;;1874198;28;7130;-63
2022/12/31 01:31:02;;;;;;;;;;;;;;;;;;1881265;28;7129;-64
2022/12/31 01:31:59;;;;;;;;;;;;;;;;;;1881117;28;7009;-64
2022/12/31 01:32:57;;;;;;;;;;;;;;;;;;1881388;28;8049;-62
2022/12/31 01:33:54;;;;;;;;;;;;;;;;;;1881713;28;7009;-64
2022/12/31 01:34:52;;;;;;;;;;;;;;;;;;1882191;28;7167;-61
2022/12/31 01:35:49;;;;;;;;;;;;;;;;;;1881104;28;7018;-62
2022/12/31 01:36:47;;;;;;;;;;;;;;;;;;1881582;28;7054;-63
2022/12/31 01:37:44;;;;;;;;;;;;;;;;;;1881778;28;7005;-63
2022/12/31 01:38:42;;;;;;;;;;;;;;;;;;1881754;28;7109;-64
2022/12/31 01:39:39;;;;;;;;;;;;;;;;;;1881577;28;7013;-64
2022/12/31 01:40:38;;;;;;;;;;;;;;;;;;1875436;28;7121;-62
2022/12/31 01:41:37;;;;;;;;;;;;;;;;;;1875774;28;8079;-63
2022/12/31 01:42:35;;;;;;;;;;;;;;;;;;1881570;28;8273;-63
2022/12/31 01:43:46;;;;;;;;;;;;;;;;;;1880446;28;7022;-64
2022/12/31 01:44:47;;;;;;;;;;;;;;;;;;1881129;28;7128;-63
2022/12/31 01:45:46;;;;;;;;;;;;;;;;;;1881143;28;7116;-62
2022/12/31 01:46:46;;;;;;;;;;;;;;;;;;1881800;28;7022;-63
2022/12/31 01:47:49;;;;;;;;;;;;;;;;;;1880416;28;7143;-62
2022/12/31 01:48:50;;;;;;;;;;;;;;;;;;1881537;28;7014;-62
2022/12/31 01:49:51;;;;;;;;;;;;;;;;;;1880142;28;7039;-63
2022/12/31 01:50:48;;;;;;;;;;;;;;;;;;1880918;28;7018;-62
2022/12/31 01:51:50;;;;;;;;;;;;;;;;;;1880913;28;7325;-64
2022/12/31 01:52:50;;;;;;;;;;;;;;;;;;1881917;28;8103;-64
2022/12/31 01:53:49;;;;;;;;;;;;;;;;;;1881456;28;7152;-63
2022/12/31 01:54:51;;;;;;;;;;;;;;;;;;1880944;28;7060;-64
2022/12/31 01:55:52;;;;;;;;;;;;;;;;;;1881870;28;8032;-63
2022/12/31 01:56:52;;;;;;;;;;;;;;;;;;1881441;28;7161;-63
2022/12/31 01:57:52;;;;;;;;;;;;;;;;;;1880757;28;8034;-63
2022/12/31 01:58:53;;;;;;;;;;;;;;;;;;1881632;28;7006;-64
2022/12/31 01:59:52;;;;;;;;;;;;;;;;;;1881216;28;7010;-62
2022/12/31 02:00:52;;;;;;;;;;;;;;;;;;1881464;28;7037;-63
2022/12/31 02:01:53;;;;;;;;;;;;;;;;;;1880681;28;7101;-62
2022/12/31 02:02:51;;;;;;;;;;;;;;;;;;1880645;28;7347;-62
2022/12/31 02:03:49;;;;;;;;;;;;;;;;;;1881623;28;8100;-63
2022/12/31 02:04:51;;;;;;;;;;;;;;;;;;1880699;28;7108;-62
2022/12/31 02:05:53;;;;;;;;;;;;;;;;;;1881251;28;7172;-64
2022/12/31 02:06:55;;;;;;;;;;;;;;;;;;1881271;28;7113;-63
2022/12/31 02:07:53;;;;;;;;;;;;;;;;;;1881812;28;7046;-64
2022/12/31 02:08:50;;;;;;;;;;;;;;;;;;1880153;28;7101;-62
2022/12/31 02:09:48;;;;;;;;;;;;;;;;;;1879780;28;7010;-64
2022/12/31 02:10:45;;;;;;;;;;;;;;;;;;1881693;28;7097;-63
2022/12/31 02:11:43;;;;;;;;;;;;;;;;;;1881179;28;7093;-63
2022/12/31 02:12:40;;;;;;;;;;;;;;;;;;1881777;28;7160;-62
2022/12/31 02:13:38;;;;;;;;;;;;;;;;;;1881672;28;7009;-64
2022/12/31 02:14:55;;;;;;;;;;;;;;;;;;1881400;28;7043;-62
2022/12/31 02:16:14;;;;;;;;;;;;;;;;;;1880618;28;7014;-62
2022/12/31 02:17:21;;;;;;;;;;;;;;;;;;1881232;28;7010;-64
2022/12/31 02:18:37;;;;;;;;;;;;;;;;;;1882156;28;7125;-64
2022/12/31 02:20:12;;;;;;;;;;;;;;;;;;1882519;28;7018;-63
2022/12/31 02:21:12;;;;;;;;;;;;;;;;;;1876998;28;8108;-62
2022/12/31 02:22:26;;;;;;;;;;;;;;;;;;1880379;28;7042;-63
2022/12/31 02:23:26;;;;;;;;;;;;;;;;;;1877379;28;8039;-63
2022/12/31 02:24:39;;;;;;;;;;;;;;;;;;1873752;28;8055;-62
2022/12/31 02:25:55;;;;;;;;;;;;;;;;;;1876251;28;7173;-63
2022/12/31 02:26:56;;;;;;;;;;;;;;;;;;1878849;28;9102;-61
2022/12/31 02:28:12;;;;;;;;;;;;;;;;;;1875350;28;7124;-63
2022/12/31 02:29:33;;;;;;;;;;;;;;;;;;1878485;28;8581;-63
2022/12/31 02:30:32;;;;;;;;;;;;;;;;;;1860655;29;8218;-63
2022/12/31 02:31:34;;;;;;;;;;;;;;;;;;1877978;28;8099;-61
2022/12/31 02:32:42;;;;;;;;;;;;;;;;;;1881491;28;7050;-63
2022/12/31 02:33:47;;;;;;;;;;;;;;;;;;1881326;28;7138;-62
2022/12/31 02:34:55;;;;;;;;;;;;;;;;;;1880480;28;7180;-62
2022/12/31 02:35:59;;;;;;;;;;;;;;;;;;1881523;28;7255;-64
2022/12/31 02:36:59;;;;;;;;;;;;;;;;;;1881046;28;8031;-63
2022/12/31 02:38:01;;;;;;;;;;;;;;;;;;1881340;28;7093;-64
2022/12/31 02:39:01;;;;;;;;;;;;;;;;;;1881907;28;7122;-64
2022/12/31 02:39:59;;;;;;;;;;;;;;;;;;1882019;28;7587;-62
2022/12/31 02:40:57;;;;;;;;;;;;;;;;;;1881617;28;7353;-63
2022/12/31 02:41:54;;;;;;;;;;;;;;;;;;1883264;28;7142;-63
2022/12/31 02:42:52;;;;;;;;;;;;;;;;;;1881737;28;7139;-63
2022/12/31 02:43:52;;;;;;;;;;;;;;;;;;1886341;28;7018;-63
2022/12/31 02:44:49;;;;;;;;;;;;;;;;;;1885482;28;7204;-62
2022/12/31 02:45:50;;;;;;;;;;;;;;;;;;1886236;28;7291;-62
2022/12/31 02:46:59;;;;;;;;;;;;;;;;;;1885550;28;7092;-63
2022/12/31 02:48:06;;;;;;;;;;;;;;;;;;1883737;28;7232;-64
2022/12/31 02:49:15;;;;;;;;;;;;;;;;;;1885852;28;7189;-62
2022/12/31 02:50:38;;;;;;;;;;;;;;;;;;1885493;28;7141;-63
2022/12/31 02:51:44;;;;;;;;;;;;;;;;;;1885322;28;7148;-63
2022/12/31 02:52:42;;;;;;;;;;;;;;;;;;1882728;28;7010;-63
2022/12/31 02:53:56;;;;;;;;;;;;;;;;;;1882887;28;7089;-64
2022/12/31 02:54:53;;;;;;;;;;;;;;;;;;1882899;28;7324;-62
2022/12/31 02:55:57;;;;;;;;;;;;;;;;;;1884159;28;7135;-61
2022/12/31 02:57:17;;;;;;;;;;;;;;;;;;1885793;28;8141;-62
2022/12/31 03:02:39;;;;;;;;;;;;;;;;;;1883938;28;8230;-62
2022/12/31 03:03:37;;;;;;;;;;;;;;;;;;1885163;28;7832;-62
2022/12/31 03:04:35;;;;;;;;;;;;;;;;;;1883452;28;7152;-61
2022/12/31 03:05:37;;;;;;;;;;;;;;;;;;1885232;28;7121;-64
2022/12/31 03:06:34;;;;;;;;;;;;;;;;;;1885411;28;7096;-64
2022/12/31 03:07:32;;;;;;;;;;;;;;;;;;1878128;28;7521;-64
2022/12/31 03:08:29;;;;;;;;;;;;;;;;;;1875421;28;7994;-63
2022/12/31 03:09:26;;;;;;;;;;;;;;;;;;1883788;28;7094;-61
2022/12/31 03:10:24;;;;;;;;;;;;;;;;;;1885882;28;7443;-64
2022/12/31 03:12:46;;;;;;;;;;;;;;;;;;1886605;28;7117;-64
2022/12/31 03:13:44;;;;;;;;;;;;;;;;;;1883401;28;7017;-61
2022/12/31 03:14:41;;;;;;;;;;;;;;;;;;1884926;28;7017;-63
2022/12/31 03:15:39;;;;;;;;;;;;;;;;;;1883406;28;7018;-63
2022/12/31 03:16:36;;;;;;;;;;;;;;;;;;1883367;28;7013;-62
2022/12/31 03:17:33;;;;;;;;;;;;;;;;;;1883864;28;7188;-63
2022/12/31 03:22:26;;;;;;;;;;;;;;;;;;1885232;28;7096;-64
2022/12/31 03:22:46;;;;;;;;;;;;;;;;;;1878428;28;7047;-63
2022/12/31 03:26:19;;;;;;;;;;;;;;;;;;1876852;28;7093;-62
2022/12/31 03:27:17;;;;;;;;;;;;;;;;;;1880682;28;7014;-64
2022/12/31 03:28:16;;;;;;;;;;;;;;;;;;1881839;28;7072;-62
2022/12/31 03:29:13;;;;;;;;;;;;;;;;;;1881939;28;7336;-62
2022/12/31 03:30:12;;;;;;;;;;;;;;;;;;1881320;28;7097;-61
2022/12/31 03:31:10;;;;;;;;;;;;;;;;;;1875204;28;7092;-64
2022/12/31 03:32:07;;;;;;;;;;;;;;;;;;1880655;28;7138;-62
2022/12/31 03:33:06;;;;;;;;;;;;;;;;;;1887823;28;7045;-63
2022/12/31 03:34:03;;;;;;;;;;;;;;;;;;1882268;28;7042;-63
2022/12/31 03:35:00;;;;;;;;;;;;;;;;;;1883028;28;7038;-63
2022/12/31 03:36:01;;;;;;;;;;;;;;;;;;1883536;28;7160;-62
2022/12/31 03:36:59;;;;;;;;;;;;;;;;;;1887217;28;7124;-62
2022/12/31 03:37:56;;;;;;;;;;;;;;;;;;1886371;28;7046;-64
2022/12/31 03:38:54;;;;;;;;;;;;;;;;;;1883463;28;7034;-64
2022/12/31 03:39:51;;;;;;;;;;;;;;;;;;1883631;28;7006;-62
2022/12/31 03:40:50;;;;;;;;;;;;;;;;;;1883157;28;7093;-64
2022/12/31 03:41:47;;;;;;;;;;;;;;;;;;1882615;28;7190;-62
2022/12/31 03:42:45;;;;;;;;;;;;;;;;;;1883127;28;7006;-64
2022/12/31 03:43:42;;;;;;;;;;;;;;;;;;1877173;28;7044;-64
2022/12/31 03:44:40;;;;;;;;;;;;;;;;;;1875580;28;7096;-62
2022/12/31 03:45:37;;;;;;;;;;;;;;;;;;1876580;28;8202;-62
2022/12/31 03:46:35;;;;;;;;;;;;;;;;;;1877117;28;7092;-64
2022/12/31 03:47:32;;;;;;;;;;;;;;;;;;1877558;28;7157;-62
2022/12/31 03:48:30;;;;;;;;;;;;;;;;;;1878548;28;7147;-64
2022/12/31 03:49:27;;;;;;;;;;;;;;;;;;1876731;28;7046;-63
2022/12/31 03:50:24;;;;;;;;;;;;;;;;;;1874302;28;7093;-63
2022/12/31 03:51:22;;;;;;;;;;;;;;;;;;1875946;28;7022;-63
2022/12/31 03:52:20;;;;;;;;;;;;;;;;;;1876954;28;7113;-63
2022/12/31 03:53:17;;;;;;;;;;;;;;;;;;1877614;28;7022;-62
2022/12/31 03:54:14;;;;;;;;;;;;;;;;;;1878814;28;7062;-64
2022/12/31 03:55:12;;;;;;;;;;;;;;;;;;1877680;28;7010;-62
2022/12/31 03:56:10;;;;;;;;;;;;;;;;;;1876271;28;7616;-64
2022/12/31 03:57:07;;;;;;;;;;;;;;;;;;1875872;28;7092;-64
2022/12/31 03:58:05;;;;;;;;;;;;;;;;;;1876076;28;7002;-64
2022/12/31 03:59:02;;;;;;;;;;;;;;;;;;1877972;28;7113;-62
2022/12/31 04:00:00;;;;;;;;;;;;;;;;;;1878909;28;8064;-62
2022/12/31 04:00:57;;;;;;;;;;;;;;;;;;1875857;28;7113;-64
2022/12/31 04:01:55;;;;;;;;;;;;;;;;;;1874838;28;8182;-63
2022/12/31 04:02:53;;;;;;;;;;;;;;;;;;1876146;28;7014;-64
2022/12/31 04:03:50;;;;;;;;;;;;;;;;;;1876291;28;7101;-61
2022/12/31 04:04:47;;;;;;;;;;;;;;;;;;1875375;28;8031;-61
2022/12/31 04:05:50;;;;;;;;;;;;;;;;;;1876115;28;7131;-63
2022/12/31 04:06:48;;;;;;;;;;;;;;;;;;1877026;28;9515;-62
2022/12/31 04:07:45;;;;;;;;;;;;;;;;;;1878278;28;7376;-62
2022/12/31 04:08:43;;;;;;;;;;;;;;;;;;1877686;28;8078;-62
2022/12/31 04:09:40;;;;;;;;;;;;;;;;;;1875833;28;7014;-62
2022/12/31 04:10:37;;;;;;;;;;;;;;;;;;1875736;28;7009;-64
2022/12/31 04:11:35;;;;;;;;;;;;;;;;;;1877026;28;7193;-62
2022/12/31 04:12:32;;;;;;;;;;;;;;;;;;1877664;28;7018;-64
2022/12/31 04:13:30;;;;;;;;;;;;;;;;;;1878715;28;7126;-62
2022/12/31 04:14:27;;;;;;;;;;;;;;;;;;1875998;28;7093;-63
2022/12/31 04:15:25;;;;;;;;;;;;;;;;;;1874888;28;7109;-62
2022/12/31 04:16:22;;;;;;;;;;;;;;;;;;1875866;28;7045;-62
2022/12/31 04:17:19;;;;;;;;;;;;;;;;;;1877825;28;7010;-63
2022/12/31 04:18:17;;;;;;;;;;;;;;;;;;1877190;28;7144;-63
2022/12/31 04:19:14;;;;;;;;;;;;;;;;;;1878032;28;7058;-63
2022/12/31 04:20:12;;;;;;;;;;;;;;;;;;1875992;28;7113;-63
2022/12/31 04:21:09;;;;;;;;;;;;;;;;;;1875707;28;7333;-62
2022/12/31 04:22:07;;;;;;;;;;;;;;;;;;1876783;28;7092;-62
2022/12/31 04:23:04;;;;;;;;;;;;;;;;;;1877250;28;7121;-64
2022/12/31 04:24:02;;;;;;;;;;;;;;;;;;1878799;28;7010;-63
2022/12/31 04:24:59;;;;;;;;;;;;;;;;;;1876090;28;7113;-62
2022/12/31 04:25:57;;;;;;;;;;;;;;;;;;1876198;28;9214;-63
2022/12/31 04:26:54;;;;;;;;;;;;;;;;;;1876369;28;7129;-63
2022/12/31 04:27:52;;;;;;;;;;;;;;;;;;1877030;28;7006;-63
2022/12/31 04:28:49;;;;;;;;;;;;;;;;;;1877389;28;7077;-62
2022/12/31 04:29:46;;;;;;;;;;;;;;;;;;1877232;28;7077;-61
2022/12/31 04:30:44;;;;;;;;;;;;;;;;;;1874947;28;8215;-64
2022/12/31 04:31:41;;;;;;;;;;;;;;;;;;1874840;28;7305;-63
2022/12/31 04:32:39;;;;;;;;;;;;;;;;;;1876389;28;8033;-62
2022/12/31 04:33:36;;;;;;;;;;;;;;;;;;1875563;28;7042;-63
2022/12/31 04:34:34;;;;;;;;;;;;;;;;;;1878060;28;7018;-64
2022/12/31 04:35:31;;;;;;;;;;;;;;;;;;1875346;28;7994;-62
2022/12/31 04:36:28;;;;;;;;;;;;;;;;;;1875633;28;7022;-62
2022/12/31 04:37:26;;;;;;;;;;;;;;;;;;1877144;28;7371;-62
2022/12/31 04:38:24;;;;;;;;;;;;;;;;;;1875948;28;7159;-62
2022/12/31 04:39:21;;;;;;;;;;;;;;;;;;1876627;28;7092;-63
2022/12/31 04:40:18;;;;;;;;;;;;;;;;;;1876470;28;7332;-63
2022/12/31 04:41:16;;;;;;;;;;;;;;;;;;1875207;28;7841;-63
2022/12/31 04:42:13;;;;;;;;;;;;;;;;;;1876259;28;7018;-63
2022/12/31 04:43:10;;;;;;;;;;;;;;;;;;1879665;28;8099;-61
2022/12/31 04:44:08;;;;;;;;;;;;;;;;;;1881122;28;7005;-63
2022/12/31 04:45:05;;;;;;;;;;;;;;;;;;1881426;28;8943;-62
2022/12/31 04:46:03;;;;;;;;;;;;;;;;;;1881607;28;8151;-64
2022/12/31 04:47:01;;;;;;;;;;;;;;;;;;1881373;28;7010;-64
2022/12/31 04:47:58;;;;;;;;;;;;;;;;;;1880454;28;7018;-62
2022/12/31 04:48:56;;;;;;;;;;;;;;;;;;1881031;28;7002;-63
2022/12/31 04:49:53;;;;;;;;;;;;;;;;;;1882215;28;8022;-63
2022/12/31 04:50:52;;;;;;;;;;;;;;;;;;1881347;28;8038;-62
2022/12/31 04:51:49;;;;;;;;;;;;;;;;;;1881701;28;7010;-62
2022/12/31 04:52:46;;;;;;;;;;;;;;;;;;1881542;28;7097;-64
2022/12/31 04:53:44;;;;;;;;;;;;;;;;;;1881896;28;7155;-62
2022/12/31 04:54:41;;;;;;;;;;;;;;;;;;1882341;28;7013;-63
2022/12/31 04:55:39;;;;;;;;;;;;;;;;;;1881386;28;7039;-62
2022/12/31 04:56:37;;;;;;;;;;;;;;;;;;1880967;28;7866;-64
2022/12/31 04:57:34;;;;;;;;;;;;;;;;;;1881900;28;7009;-62
2022/12/31 04:58:32;;;;;;;;;;;;;;;;;;1881688;28;7006;-63
2022/12/31 04:59:29;;;;;;;;;;;;;;;;;;1881928;28;7168;-62
2022/12/31 05:00:26;;;;;;;;;;;;;;;;;;1882051;28;7050;-62
2022/12/31 05:01:24;;;;;;;;;;;;;;;;;;1881726;28;7113;-62
2022/12/31 05:02:21;;;;;;;;;;;;;;;;;;1881745;28;7110;-63
2022/12/31 05:03:20;;;;;;;;;;;;;;;;;;1882124;28;7097;-64
2022/12/31 05:04:18;;;;;;;;;;;;;;;;;;1881275;28;7046;-63
2022/12/31 05:05:15;;;;;;;;;;;;;;;;;;1881767;28;7177;-64
2022/12/31 05:06:15;;;;;;;;;;;;;;;;;;1881747;28;7121;-63
2022/12/31 05:07:12;;;;;;;;;;;;;;;;;;1882324;28;7014;-61
2022/12/31 05:08:11;;;;;;;;;;;;;;;;;;1882384;28;7002;-64
2022/12/31 05:09:08;;;;;;;;;;;;;;;;;;1881822;28;7010;-64
2022/12/31 05:10:05;;;;;;;;;;;;;;;;;;1877208;28;7184;-63
2022/12/31 05:11:03;;;;;;;;;;;;;;;;;;1873744;28;7163;-63
2022/12/31 05:12:00;;;;;;;;;;;;;;;;;;1880241;28;7006;-62
2022/12/31 05:12:58;;;;;;;;;;;;;;;;;;1882204;28;7010;-63
2022/12/31 05:13:55;;;;;;;;;;;;;;;;;;1884745;28;7002;-64
2022/12/31 05:14:52;;;;;;;;;;;;;;;;;;1883474;28;7607;-63
2022/12/31 05:15:50;;;;;;;;;;;;;;;;;;1881217;28;7083;-62
2022/12/31 05:16:47;;;;;;;;;;;;;;;;;;1881222;28;7113;-64
2022/12/31 05:17:45;;;;;;;;;;;;;;;;;;1881594;28;7089;-62
2022/12/31 05:18:42;;;;;;;;;;;;;;;;;;1881730;28;8035;-63
2022/12/31 05:19:39;;;;;;;;;;;;;;;;;;1881751;28;7006;-64
2022/12/31 05:20:37;;;;;;;;;;;;;;;;;;1881792;28;7006;-62
2022/12/31 05:21:34;;;;;;;;;;;;;;;;;;1881966;28;8123;-62
2022/12/31 05:22:32;;;;;;;;;;;;;;;;;;1881500;28;7006;-64
2022/12/31 05:23:29;;;;;;;;;;;;;;;;;;1882111;28;7010;-64
2022/12/31 05:24:26;;;;;;;;;;;;;;;;;;1881940;28;7006;-62
2022/12/31 05:25:24;;;;;;;;;;;;;;;;;;1881245;28;7116;-63
2022/12/31 05:26:22;;;;;;;;;;;;;;;;;;1881358;28;7113;-63
2022/12/31 05:27:19;;;;;;;;;;;;;;;;;;1881689;28;8045;-62
2022/12/31 05:28:17;;;;;;;;;;;;;;;;;;1881255;28;7100;-62
2022/12/31 05:29:14;;;;;;;;;;;;;;;;;;1873084;28;7513;-63
2022/12/31 05:30:12;;;;;;;;;;;;;;;;;;1876025;28;7465;-63
2022/12/31 05:31:09;;;;;;;;;;;;;;;;;;1879578;28;8021;-64
2022/12/31 05:32:07;;;;;;;;;;;;;;;;;;1881380;28;7026;-62
2022/12/31 05:33:04;;;;;;;;;;;;;;;;;;1881027;28;7092;-63
2022/12/31 05:34:01;;;;;;;;;;;;;;;;;;1881719;28;7092;-63
2022/12/31 05:34:59;;;;;;;;;;;;;;;;;;1881859;28;7009;-63
2022/12/31 05:35:57;;;;;;;;;;;;;;;;;;1881428;28;7794;-61
2022/12/31 05:36:54;;;;;;;;;;;;;;;;;;1881667;28;7114;-62
2022/12/31 05:37:52;;;;;;;;;;;;;;;;;;1881708;28;7205;-62
2022/12/31 05:38:49;;;;;;;;;;;;;;;;;;1881618;28;7279;-62
2022/12/31 05:39:47;;;;;;;;;;;;;;;;;;1881675;28;7124;-62
2022/12/31 05:40:44;;;;;;;;;;;;;;;;;;1881877;28;7109;-63
2022/12/31 05:41:42;;;;;;;;;;;;;;;;;;1882341;28;7045;-63
2022/12/31 05:42:39;;;;;;;;;;;;;;;;;;1882244;28;7010;-62
2022/12/31 05:43:36;;;;;;;;;;;;;;;;;;1887060;28;7097;-62
2022/12/31 05:44:34;;;;;;;;;;;;;;;;;;1883648;28;8042;-63
2022/12/31 05:45:31;;;;;;;;;;;;;;;;;;1881207;28;7137;-64
2022/12/31 05:46:29;;;;;;;;;;;;;;;;;;1878539;28;7158;-62
2022/12/31 05:47:26;;;;;;;;;;;;;;;;;;1879073;28;7026;-63
2022/12/31 05:48:24;;;;;;;;;;;;;;;;;;1881195;28;7148;-61
2022/12/31 05:49:21;;;;;;;;;;;;;;;;;;1885514;28;7165;-64
2022/12/31 05:50:18;;;;;;;;;;;;;;;;;;1884031;28;7102;-62
2022/12/31 05:51:16;;;;;;;;;;;;;;;;;;1887318;28;7376;-64
2022/12/31 05:52:13;;;;;;;;;;;;;;;;;;1884050;28;7127;-63
2022/12/31 05:53:11;;;;;;;;;;;;;;;;;;1887318;28;7214;-63
2022/12/31 05:54:08;;;;;;;;;;;;;;;;;;1882532;28;8068;-63
2022/12/31 05:55:06;;;;;;;;;;;;;;;;;;1879096;28;7006;-62
2022/12/31 05:56:03;;;;;;;;;;;;;;;;;;1879557;28;7005;-63
2022/12/31 05:57:01;;;;;;;;;;;;;;;;;;1888733;28;7009;-61
2022/12/31 05:57:59;;;;;;;;;;;;;;;;;;1889409;28;8075;-64
2022/12/31 05:58:56;;;;;;;;;;;;;;;;;;1889100;28;7102;-61
2022/12/31 05:59:53;;;;;;;;;;;;;;;;;;1882168;28;8012;-63
2022/12/31 06:00:51;;;;;;;;;;;;;;;;;;1881219;28;7929;-62
2022/12/31 06:01:48;;;;;;;;;;;;;;;;;;1882208;28;7010;-62
2022/12/31 06:02:46;;;;;;;;;;;;;;;;;;1881706;28;8015;-62
2022/12/31 06:03:43;;;;;;;;;;;;;;;;;;1881846;28;7042;-61
2022/12/31 06:04:41;;;;;;;;;;;;;;;;;;1885736;28;7139;-63
2022/12/31 06:05:40;;;;;;;;;;;;;;;;;;1883090;28;7010;-63
2022/12/31 06:06:37;;;;;;;;;;;;;;;;;;1881167;28;8022;-62
2022/12/31 06:07:34;;;;;;;;;;;;;;;;;;1875735;28;7010;-63
2022/12/31 06:08:32;;;;;;;;;;;;;;;;;;1875002;28;8078;-62
2022/12/31 06:09:29;;;;;;;;;;;;;;;;;;1883129;28;7096;-63
2022/12/31 06:10:26;;;;;;;;;;;;;;;;;;1886924;28;7160;-61
2022/12/31 06:11:24;;;;;;;;;;;;;;;;;;1881627;28;7088;-63
2022/12/31 06:12:21;;;;;;;;;;;;;;;;;;1883682;28;8034;-62
2022/12/31 06:13:19;;;;;;;;;;;;;;;;;;1877693;28;7006;-62
2022/12/31 06:14:16;;;;;;;;;;;;;;;;;;1872388;28;8148;-61
2022/12/31 06:15:13;;;;;;;;;;;;;;;;;;1877831;28;7010;-62
2022/12/31 06:16:11;;;;;;;;;;;;;;;;;;1883215;28;8006;-63
2022/12/31 06:17:09;;;;;;;;;;;;;;;;;;1886037;28;8342;-64
2022/12/31 06:18:06;;;;;;;;;;;;;;;;;;1888118;28;7006;-64
2022/12/31 06:19:04;;;;;;;;;;;;;;;;;;1887316;28;7178;-63
2022/12/31 06:20:01;;;;;;;;;;;;;;;;;;1887698;28;7046;-61
2022/12/31 06:21:06;;;;;;;;;;;;;;;;;;1884668;28;7242;-64
2022/12/31 06:22:04;;;;;;;;;;;;;;;;;;1888095;28;7010;-63
2022/12/31 06:23:01;;;;;;;;;;;;;;;;;;1884706;28;7042;-62
2022/12/31 06:23:59;;;;;;;;;;;;;;;;;;1887930;28;8089;-63
2022/12/31 06:24:56;;;;;;;;;;;;;;;;;;1888354;28;7038;-62
2022/12/31 06:25:53;;;;;;;;;;;;;;;;;;1886071;28;7014;-62
2022/12/31 06:26:51;;;;;;;;;;;;;;;;;;1885770;28;7160;-63
2022/12/31 06:27:48;;;;;;;;;;;;;;;;;;1886308;28;7006;-61
2022/12/31 06:28:46;;;;;;;;;;;;;;;;;;1887649;28;8039;-64
2022/12/31 06:29:44;;;;;;;;;;;;;;;;;;1886866;28;7005;-63
2022/12/31 06:30:42;;;;;;;;;;;;;;;;;;1888143;28;8063;-62
2022/12/31 06:31:39;;;;;;;;;;;;;;;;;;1886244;28;7152;-64
2022/12/31 06:32:38;;;;;;;;;;;;;;;;;;1885609;28;7928;-64
2022/12/31 06:33:35;;;;;;;;;;;;;;;;;;1883868;28;7084;-62
2022/12/31 06:34:33;;;;;;;;;;;;;;;;;;1884499;28;7089;-63
2022/12/31 06:35:30;;;;;;;;;;;;;;;;;;1884222;28;8202;-62
2022/12/31 06:36:28;;;;;;;;;;;;;;;;;;1885540;28;7009;-63
2022/12/31 06:37:25;;;;;;;;;;;;;;;;;;1885069;28;7006;-64
2022/12/31 06:38:23;;;;;;;;;;;;;;;;;;1884401;28;8017;-64
2022/12/31 06:39:21;;;;;;;;;;;;;;;;;;1885359;28;7014;-62
2022/12/31 06:40:18;;;;;;;;;;;;;;;;;;1885755;28;7109;-62
2022/12/31 06:41:17;;;;;;;;;;;;;;;;;;1885386;28;7121;-63
2022/12/31 06:42:14;;;;;;;;;;;;;;;;;;1886636;28;8041;-62
2022/12/31 06:43:11;;;;;;;;;;;;;;;;;;1885176;28;7991;-64
2022/12/31 06:44:09;;;;;;;;;;;;;;;;;;1884065;28;8006;-62
2022/12/31 06:45:06;;;;;;;;;;;;;;;;;;1883895;28;7029;-62
2022/12/31 06:46:05;;;;;;;;;;;;;;;;;;1883616;28;7049;-64
2022/12/31 06:47:03;;;;;;;;;;;;;;;;;;1878843;28;8037;-65
2022/12/31 06:48:00;;;;;;;;;;;;;;;;;;1877729;28;7551;-63
2022/12/31 06:48:58;;;;;;;;;;;;;;;;;;1883309;28;7006;-62
2022/12/31 06:49:55;;;;;;;;;;;;;;;;;;1884466;28;7092;-62
2022/12/31 06:50:53;;;;;;;;;;;;;;;;;;1884203;28;7396;-62
2022/12/31 06:51:50;;;;;;;;;;;;;;;;;;1884042;28;7050;-63
2022/12/31 06:52:48;;;;;;;;;;;;;;;;;;1883960;28;8021;-63
2022/12/31 06:53:46;;;;;;;;;;;;;;;;;;1883796;28;7010;-62
2022/12/31 06:54:44;;;;;;;;;;;;;;;;;;1883881;28;7424;-63
2022/12/31 06:55:41;;;;;;;;;;;;;;;;;;1884232;28;7093;-64
2022/12/31 06:56:39;;;;;;;;;;;;;;;;;;1884443;28;7121;-62
2022/12/31 06:57:37;;;;;;;;;;;;;;;;;;1883644;28;7036;-62
2022/12/31 06:58:34;;;;;;;;;;;;;;;;;;1883715;28;7046;-64
2022/12/31 06:59:32;;;;;;;;;;;;;;;;;;1883767;28;8108;-62
2022/12/31 07:00:30;;;;;;;;;;;;;;;;;;1884000;28;7342;-63